Time;durP1;ratioP1;P1;durP2;ratioP2;P2;SDS_P1;SDS_P2;PMS_P1;PMS_P2;Temp;Humidity;BMP_temperature;BMP_pressure;BME280_temperature;BME280_humidity;BME280_pressure;Samples;Min_cycle;Max_cycle;Signal;HPM_P1;HPM_P2
2022/07/15 00:01:06;;;;;;;9.40;1.98;;;;;;;14.62;76.39;102225.66;5013600;28;20476;-40
2022/07/15 00:03:32;;;;;;;6.85;1.48;;;;;;;14.73;75.86;102225.22;5013793;28;20064;-39
2022/07/15 00:05:57;;;;;;;6.63;1.85;;;;;;;14.75;75.44;102220.63;5013150;28;20049;-39
2022/07/15 00:08:23;;;;;;;4.63;1.40;;;;;;;14.73;76.24;102220.00;5013844;28;20022;-39
2022/07/15 00:10:48;;;;;;;7.57;1.58;;;;;;;14.65;75.84;102212.28;5013834;28;20462;-39
2022/07/15 00:13:13;;;;;;;6.40;1.38;;;;;;;14.57;76.28;102223.56;5013463;28;20014;-39
2022/07/15 00:15:38;;;;;;;7.47;1.40;;;;;;;14.60;75.93;102219.81;5013461;28;20388;-43
2022/07/15 00:18:04;;;;;;;10.55;1.67;;;;;;;14.56;76.51;102221.97;5013230;28;20026;-38
2022/07/15 00:20:33;;;;;;;7.07;1.40;;;;;;;14.40;77.04;102229.88;5013718;28;20026;-39
2022/07/15 00:23:00;;;;;;;10.25;1.38;;;;;;;14.35;77.50;102227.00;5013774;28;20022;-39
2022/07/15 00:25:26;;;;;;;7.20;1.40;;;;;;;14.39;77.72;102223.88;5012517;28;20061;-40
2022/07/15 00:28:06;;;;;;;5.93;1.48;;;;;;;14.36;77.67;102220.84;5013701;28;20448;-38
2022/07/15 00:30:37;;;;;;;5.82;1.60;;;;;;;14.40;77.41;102225.50;5028507;28;20485;-38
2022/07/15 00:33:03;;;;;;;6.18;1.40;;;;;;;14.37;77.10;102225.03;5013418;28;20101;-40
2022/07/15 00:35:30;;;;;;;7.80;1.30;;;;;;;14.34;77.49;102225.41;5013410;28;20037;-40
2022/07/15 00:37:56;;;;;;;7.22;1.60;;;;;;;14.37;77.60;102225.03;5013330;28;20034;-37
2022/07/15 00:40:21;;;;;;;9.13;1.45;;;;;;;14.34;77.39;102213.19;5013341;28;20032;-39
2022/07/15 00:42:46;;;;;;;7.15;1.48;;;;;;;14.34;77.27;102215.78;5013549;28;20049;-39
2022/07/15 00:45:17;;;;;;;5.68;1.27;;;;;;;14.33;77.53;102211.59;5013535;28;20029;-36
2022/07/15 00:47:51;;;;;;;6.38;1.80;;;;;;;14.27;77.09;102214.06;5013377;28;20030;-39
2022/07/15 00:50:18;;;;;;;5.95;1.55;;;;;;;14.13;78.25;102211.28;5013221;28;20496;-38
2022/07/15 00:52:55;;;;;;;9.60;1.60;;;;;;;14.22;78.25;102204.22;5013038;28;20029;-38
2022/07/15 00:55:22;;;;;;;10.00;1.60;;;;;;;14.15;78.20;102204.09;5013465;28;20479;-40
2022/07/15 00:57:49;;;;;;;7.57;1.50;;;;;;;14.12;78.40;102201.03;5013222;28;20095;-40
2022/07/15 01:00:15;;;;;;;9.07;1.48;;;;;;;14.15;78.44;102200.69;5013917;28;20029;-38
2022/07/15 01:02:50;;;;;;;8.57;1.40;;;;;;;14.06;78.60;102205.16;5017346;28;20346;-39
2022/07/15 01:05:16;;;;;;;5.57;1.55;;;;;;;14.07;78.65;102200.75;5016930;28;20022;-40
2022/07/15 01:07:41;;;;;;;12.35;1.52;;;;;;;14.02;78.65;102197.88;5016469;28;20049;-39
2022/07/15 01:10:07;;;;;;;8.00;1.42;;;;;;;14.09;78.90;102196.19;5016575;28;20084;-39
2022/07/15 01:12:34;;;;;;;6.00;1.48;;;;;;;14.13;78.70;102198.28;5016869;28;20026;-36
2022/07/15 01:14:59;;;;;;;5.28;1.40;;;;;;;14.14;78.52;102201.69;5016499;28;20053;-40
2022/07/15 01:17:25;;;;;;;7.00;1.40;;;;;;;14.15;78.12;102206.69;5016385;28;20378;-39
2022/07/15 01:19:50;;;;;;;6.30;1.42;;;;;;;14.12;78.00;102203.63;5016360;28;20037;-40
2022/07/15 01:22:15;;;;;;;7.10;1.30;;;;;;;14.12;78.57;102203.63;5016292;28;20109;-39
2022/07/15 01:24:41;;;;;;;9.07;1.58;;;;;;;14.05;78.66;102200.13;5016181;28;20172;-38
2022/07/15 01:27:07;;;;;;;7.05;1.70;;;;;;;13.99;79.23;102199.84;5016488;28;20030;-40
2022/07/15 01:29:32;;;;;;;6.60;1.30;;;;;;;13.93;79.23;102207.53;5016475;28;20032;-41
2022/07/15 01:31:57;;;;;;;5.65;1.40;;;;;;;13.91;79.72;102206.91;5016166;28;20384;-39
2022/07/15 01:34:23;;;;;;;5.47;1.30;;;;;;;14.04;79.26;102209.72;5015936;28;20022;-39
2022/07/15 01:36:48;;;;;;;6.80;1.50;;;;;;;13.94;79.18;102217.75;5016322;28;20026;-38
2022/07/15 01:39:13;;;;;;;5.93;1.90;;;;;;;13.94;79.43;102209.16;5016253;28;20028;-39
2022/07/15 01:41:39;;;;;;;8.02;1.67;;;;;;;14.01;78.94;102212.66;5015924;28;20480;-38
2022/07/15 01:44:04;;;;;;;10.00;1.63;;;;;;;13.98;79.45;102215.59;5016173;28;20028;-38
2022/07/15 01:46:29;;;;;;;6.90;1.65;;;;;;;14.03;79.33;102215.91;5016132;28;20021;-38
2022/07/15 01:51:39;;;;;;;4.20;1.23;;;;;;;14.07;79.59;102211.97;5015806;28;20450;-39
2022/07/15 01:54:05;;;;;;;7.72;1.58;;;;;;;13.99;78.90;102218.03;5015828;28;20025;-38
2022/07/15 01:56:30;;;;;;;6.32;1.70;;;;;;;13.97;79.42;102220.00;5015865;28;20026;-39
2022/07/15 01:58:55;;;;;;;12.52;1.52;;;;;;;13.93;79.61;102216.13;5015694;28;20137;-38
2022/07/15 02:01:21;;;;;;;6.38;1.38;;;;;;;13.93;79.51;102210.13;5015895;28;20075;-38
2022/07/15 02:03:46;;;;;;;7.63;1.67;;;;;;;13.97;79.45;102216.59;5015579;28;20045;-39
2022/07/15 02:06:11;;;;;;;7.07;1.30;;;;;;;13.94;79.43;102214.34;5015335;28;20078;-40
2022/07/15 02:08:36;;;;;;;7.53;1.40;;;;;;;13.84;80.12;102209.41;5015989;28;20030;-40
2022/07/15 02:11:02;;;;;;;7.90;1.73;;;;;;;13.81;80.25;102214.94;5015344;28;20026;-39
2022/07/15 02:13:27;;;;;;;9.65;1.55;;;;;;;13.91;80.18;102214.69;5015447;28;20120;-40
2022/07/15 02:15:53;;;;;;;8.23;1.60;;;;;;;13.99;79.34;102214.63;5015346;28;20455;-38
2022/07/15 02:18:18;;;;;;;11.60;1.60;;;;;;;13.87;79.95;102213.44;5015762;28;20377;-39
2022/07/15 02:20:43;;;;;;;7.90;1.70;;;;;;;13.91;79.38;102212.09;5015468;28;20026;-38
2022/07/15 02:23:09;;;;;;;7.22;1.55;;;;;;;13.82;79.76;102213.16;5013951;28;20025;-40
2022/07/15 02:25:35;;;;;;;4.18;1.23;;;;;;;13.78;80.09;102204.88;5015040;28;20025;-38
2022/07/15 02:28:03;;;;;;;8.43;1.92;;;;;;;13.80;80.58;102215.09;5015041;28;20032;-37
2022/07/15 02:30:33;;;;;;;6.55;1.30;;;;;;;13.75;80.45;102215.59;5014998;28;20052;-39
2022/07/15 02:32:59;;;;;;;8.57;1.40;;;;;;;13.71;80.23;102217.75;5014837;28;20076;-39
2022/07/15 02:35:24;;;;;;;7.57;1.60;;;;;;;13.73;80.29;102213.19;5030154;28;20034;-39
2022/07/15 02:37:50;;;;;;;10.68;1.35;;;;;;;13.68;80.75;102220.69;5014819;28;20032;-39
2022/07/15 02:40:16;;;;;;;7.85;1.63;;;;;;;13.68;80.80;102219.88;5014809;28;20424;-39
2022/07/15 02:42:52;;;;;;;5.10;1.70;;;;;;;13.68;80.62;102214.69;5014841;28;20029;-39
2022/07/15 02:45:19;;;;;;;8.73;1.73;;;;;;;13.59;80.59;102203.53;5015268;28;20026;-40
2022/07/15 02:47:45;;;;;;;5.50;1.17;;;;;;;13.63;80.77;102219.59;5014699;28;20026;-41
2022/07/15 02:50:10;;;;;;;7.88;1.50;;;;;;;13.65;80.56;102222.81;5014935;28;20072;-40
2022/07/15 02:52:35;;;;;;;4.60;1.60;;;;;;;13.63;80.59;102223.00;5014576;28;20469;-40
2022/07/15 02:55:01;;;;;;;6.68;1.42;;;;;;;13.59;80.94;102221.72;5014562;28;20054;-40
2022/07/15 02:57:27;;;;;;;7.13;1.20;;;;;;;13.55;81.33;102225.63;5014593;28;20030;-38
2022/07/15 02:59:53;;;;;;;6.45;1.35;;;;;;;13.56;81.15;102222.06;5015051;28;20025;-40
2022/07/15 03:02:18;;;;;;;4.32;1.25;;;;;;;13.54;81.22;102226.63;5014689;28;20033;-37
2022/07/15 03:04:44;;;;;;;5.82;1.38;;;;;;;13.50;81.65;102222.75;5014433;28;20464;-40
2022/07/15 03:07:10;;;;;;;7.15;1.40;;;;;;;13.55;81.14;102220.44;5014304;28;20053;-40
2022/07/15 03:09:36;;;;;;;7.03;1.52;;;;;;;13.46;81.53;102221.47;5014641;28;20376;-39
2022/07/15 03:12:01;;;;;;;9.40;1.88;;;;;;;13.53;80.88;102225.81;5014245;28;20032;-39
2022/07/15 03:14:26;;;;;;;5.13;1.35;;;;;;;13.45;80.81;102223.25;5014679;28;20084;-40
2022/07/15 03:16:52;;;;;;;10.40;1.60;;;;;;;13.51;80.67;102240.75;5014484;28;20044;-37
2022/07/15 03:19:17;;;;;;;4.88;1.23;;;;;;;13.49;81.28;102236.69;5014518;28;20389;-39
2022/07/15 03:21:42;;;;;;;7.15;1.40;;;;;;;13.46;81.08;102243.03;5014428;28;20408;-39
2022/07/15 03:24:08;;;;;;;9.30;1.58;;;;;;;13.42;81.14;102241.78;5013950;28;20080;-39
2022/07/15 03:26:33;;;;;;;6.53;1.50;;;;;;;13.38;81.41;102239.69;5014358;28;20022;-40
2022/07/15 03:29:00;;;;;;;6.78;1.50;;;;;;;13.38;81.41;102248.31;5013995;28;20017;-40
2022/07/15 03:31:26;;;;;;;13.15;1.90;;;;;;;13.34;81.56;102238.41;5013958;28;20029;-39
2022/07/15 03:33:51;;;;;;;7.72;1.52;;;;;;;13.36;81.07;102250.25;5013888;28;20021;-39
2022/07/15 03:36:16;;;;;;;6.35;1.58;;;;;;;13.32;81.92;102248.94;5014204;28;20045;-41
2022/07/15 03:38:42;;;;;;;6.53;1.63;;;;;;;13.37;81.93;102249.25;5012695;28;20473;-38
2022/07/15 03:41:08;;;;;;;8.20;2.28;;;;;;;13.40;81.03;102248.13;5014148;28;20030;-38
2022/07/15 03:43:34;;;;;;;7.65;1.50;;;;;;;13.39;81.33;102256.91;5014091;28;20463;-40
2022/07/15 03:46:00;;;;;;;5.97;1.45;;;;;;;13.41;81.41;102260.13;5014302;28;20026;-39
2022/07/15 03:48:25;;;;;;;6.80;1.35;;;;;;;13.48;80.91;102256.66;5028988;28;20036;-38
2022/07/15 03:50:50;;;;;;;5.78;1.63;;;;;;;13.57;80.79;102267.03;5013719;28;20022;-38
2022/07/15 03:53:15;;;;;;;5.93;1.30;;;;;;;13.53;80.63;102261.38;5013761;28;20025;-37
2022/07/15 03:55:41;;;;;;;8.15;1.65;;;;;;;13.53;80.30;102271.75;5013752;28;20638;-40
2022/07/15 03:58:06;;;;;;;11.68;1.58;;;;;;;13.52;80.67;102270.97;5012432;28;20033;-40
2022/07/15 04:00:31;;;;;;;8.23;1.60;;;;;;;13.50;81.28;102275.50;5013627;28;20452;-39
2022/07/15 04:02:57;;;;;;;5.93;1.60;;;;;;;13.60;80.64;102277.88;5014170;28;20029;-39
2022/07/15 04:05:22;;;;;;;6.18;1.30;;;;;;;13.61;80.89;102273.50;5013815;28;20026;-38
2022/07/15 04:07:47;;;;;;;6.70;1.77;;;;;;;13.65;80.67;102279.97;5013438;28;20397;-38
2022/07/15 04:10:14;;;;;;;6.93;1.40;;;;;;;13.74;80.07;102278.94;5014036;28;20034;-39
2022/07/15 04:12:41;;;;;;;5.97;1.38;;;;;;;13.82;79.81;102284.09;5013774;28;20412;-40
2022/07/15 04:15:07;;;;;;;7.70;2.15;;;;;;;13.74;79.75;102282.34;5013759;28;20113;-40
2022/07/15 04:17:32;;;;;;;7.05;1.55;;;;;;;13.64;80.53;102283.56;5013460;28;20064;-37
2022/07/15 04:19:57;;;;;;;10.85;1.70;;;;;;;13.64;80.65;102284.38;5013391;28;20111;-39
2022/07/15 04:22:22;;;;;;;10.70;1.55;;;;;;;13.71;80.16;102268.91;5013704;28;20030;-40
2022/07/15 04:24:48;;;;;;;7.15;1.73;;;;;;;13.83;80.09;102288.31;5013967;28;20022;-39
2022/07/15 04:27:13;;;;;;;9.20;1.70;;;;;;;13.85;79.94;102283.75;5013411;28;20469;-39
2022/07/15 04:29:38;;;;;;;5.45;1.45;;;;;;;13.91;79.98;102290.06;5013897;28;20076;-39
2022/07/15 04:32:04;;;;;;;8.90;1.70;;;;;;;13.92;79.85;102281.28;5013318;28;20354;-38
2022/07/15 04:34:29;;;;;;;6.95;1.50;;;;;;;13.95;80.13;102283.53;5013611;28;20511;-38
2022/07/15 04:36:55;;;;;;;5.97;1.30;;;;;;;14.03;79.46;102288.66;5016997;28;20026;-38
2022/07/15 04:39:20;;;;;;;10.55;1.95;;;;;;;14.12;79.18;102286.81;5017112;28;20388;-39
2022/07/15 04:41:45;;;;;;;9.82;1.52;;;;;;;14.12;79.22;102290.22;5016957;28;20109;-40
2022/07/15 04:44:10;;;;;;;9.00;1.58;;;;;;;14.10;79.98;102294.00;5017296;28;20018;-40
2022/07/15 04:46:36;;;;;;;12.07;1.80;;;;;;;14.16;79.76;102291.50;5017257;28;20022;-40
2022/07/15 04:51:45;;;;;;;11.45;1.85;;;;;;;14.30;79.17;102287.34;5017128;28;20084;-41
2022/07/15 04:54:10;;;;;;;6.22;1.50;;;;;;;14.34;79.54;102295.59;5016953;28;20029;-39
2022/07/15 04:56:37;;;;;;;6.40;1.70;;;;;;;14.43;78.91;102297.16;5017015;28;20026;-38
2022/07/15 04:59:02;;;;;;;6.57;1.30;;;;;;;14.43;78.93;102294.56;5017042;28;20472;-37
2022/07/15 05:01:27;;;;;;;7.25;1.70;;;;;;;14.44;78.60;102294.38;5016603;28;20022;-38
2022/07/15 05:03:52;;;;;;;7.65;1.90;;;;;;;14.61;78.84;102292.47;5016904;28;20026;-39
2022/07/15 05:06:18;;;;;;;6.68;1.70;;;;;;;14.64;78.55;102291.31;5016418;28;20484;-37
2022/07/15 05:08:43;;;;;;;5.70;1.70;;;;;;;14.67;78.49;102290.94;5017062;28;20108;-38
2022/07/15 05:11:08;;;;;;;7.30;1.45;;;;;;;14.82;77.96;102291.00;5016531;28;20029;-48
2022/07/15 05:13:37;;;;;;;10.48;1.60;;;;;;;14.92;77.32;102291.53;5016120;28;20029;-38
2022/07/15 05:16:02;;;;;;;6.05;1.60;;;;;;;14.97;77.20;102293.59;5016183;28;20544;-40
2022/07/15 05:18:28;;;;;;;8.82;1.83;;;;;;;14.99;77.12;102299.41;5016230;28;20030;-41
2022/07/15 05:20:53;;;;;;;9.68;1.83;;;;;;;14.99;77.77;102292.44;5016205;28;20113;-39
2022/07/15 05:23:19;;;;;;;8.50;1.77;;;;;;;15.02;77.72;102294.69;5014536;28;20022;-39
2022/07/15 05:25:45;;;;;;;10.70;2.00;;;;;;;15.04;76.86;102289.28;5015521;28;20034;-41
2022/07/15 05:28:11;;;;;;;11.02;1.83;;;;;;;15.24;76.93;102295.56;5015763;28;20372;-40
2022/07/15 05:30:37;;;;;;;5.10;1.52;;;;;;;15.27;76.83;102297.78;5015151;28;20385;-39
2022/07/15 05:33:02;;;;;;;5.38;1.45;;;;;;;15.33;76.84;102293.66;5015393;28;20033;-37
2022/07/15 05:35:28;;;;;;;8.23;1.85;;;;;;;15.50;75.48;102300.28;5015620;28;20038;-39
2022/07/15 05:37:53;;;;;;;9.05;1.48;;;;;;;15.62;75.07;102299.81;5014766;28;20057;-39
2022/07/15 05:40:18;;;;;;;10.20;1.85;;;;;;;15.68;74.67;102297.34;5030306;28;20398;-39
2022/07/15 05:42:44;;;;;;;10.63;1.58;;;;;;;15.68;75.07;102297.34;5015669;28;20037;-40
2022/07/15 05:45:10;;;;;;;6.47;1.65;;;;;;;15.63;75.56;102291.81;5015092;28;20383;-39
2022/07/15 05:47:35;;;;;;;6.03;1.38;;;;;;;15.75;74.82;102297.41;5015145;28;20057;-39
2022/07/15 05:50:00;;;;;;;8.65;1.60;;;;;;;15.88;74.14;102302.75;5014798;28;20464;-38
2022/07/15 05:52:26;;;;;;;7.68;1.30;;;;;;;16.51;73.19;102302.91;5015017;28;20137;-40
2022/07/15 05:54:51;;;;;;;6.35;1.50;;;;;;;24.22;48.84;102291.25;5014440;28;20022;-39
2022/07/15 05:57:16;;;;;;;7.32;1.67;;;;;;;28.01;38.60;102301.91;5015072;28;20084;-40
2022/07/15 05:59:42;;;;;;;7.10;1.60;;;;;;;29.18;36.18;102288.22;5014840;28;20519;-41
2022/07/15 06:02:08;;;;;;;7.40;2.05;;;;;;;29.73;34.29;102289.97;5014646;28;20030;-42
2022/07/15 06:04:33;;;;;;;7.68;1.90;;;;;;;30.04;33.56;102293.13;5014677;28;20041;-42
2022/07/15 06:06:58;;;;;;;8.57;1.60;;;;;;;30.46;32.41;102300.41;5015070;28;20473;-39
2022/07/15 06:09:23;;;;;;;4.70;1.58;;;;;;;30.34;32.73;102292.81;5015527;28;20265;-43
2022/07/15 06:11:49;;;;;;;8.18;1.58;;;;;;;29.73;32.30;102285.41;5015282;28;20026;-42
2022/07/15 06:14:14;;;;;;;9.68;1.73;;;;;;;30.39;32.03;102293.84;5015482;28;20025;-41
2022/07/15 06:16:40;;;;;;;7.70;1.65;;;;;;;31.22;29.94;102285.25;5015469;28;20030;-41
2022/07/15 06:19:08;;;;;;;9.52;1.90;;;;;;;30.98;30.73;102285.34;5015117;28;20033;-43
2022/07/15 06:21:33;;;;;;;4.63;1.20;;;;;;;30.65;31.38;102272.97;5015428;28;20449;-42
2022/07/15 06:23:59;;;;;;;5.43;1.48;;;;;;;30.20;31.58;102283.09;5015115;28;20022;-40
2022/07/15 06:26:24;;;;;;;8.03;1.70;;;;;;;30.69;30.39;102279.31;5015464;28;20029;-41
2022/07/15 06:28:49;;;;;;;8.45;1.52;;;;;;;31.01;30.43;102276.75;5014951;28;20334;-42
2022/07/15 06:31:15;;;;;;;5.90;1.47;;;;;;;31.13;29.64;102289.69;5015410;28;20026;-39
2022/07/15 06:33:40;;;;;;;7.13;1.60;;;;;;;31.32;29.75;102289.66;5015161;28;20281;-40
2022/07/15 06:36:05;;;;;;;7.32;1.52;;;;;;;30.60;30.89;102289.03;5015171;28;20029;-41
2022/07/15 06:38:32;;;;;;;3.70;1.30;;;;;;;31.14;29.82;102285.13;5015163;28;20104;-40
2022/07/15 06:40:57;;;;;;;5.88;1.33;;;;;;;31.54;29.22;102290.94;5015066;28;20025;-41
2022/07/15 06:43:22;;;;;;;7.93;1.58;;;;;;;32.23;28.75;102289.16;5014964;28;20392;-41
2022/07/15 06:45:48;;;;;;;4.18;1.27;;;;;;;29.94;31.42;102295.88;5015068;28;20026;-41
2022/07/15 06:48:13;;;;;;;6.35;1.70;;;;;;;31.31;29.57;102296.06;5014892;28;20432;-41
2022/07/15 06:50:39;;;;;;;5.03;1.50;;;;;;;30.43;30.31;102290.31;5014725;28;20496;-41
2022/07/15 06:53:04;;;;;;;8.00;1.58;;;;;;;30.70;30.52;102294.22;5014714;28;20029;-41
2022/07/15 06:55:30;;;;;;;8.43;1.42;;;;;;;30.55;29.87;102301.34;5014803;28;20058;-41
2022/07/15 06:57:56;;;;;;;7.18;1.58;;;;;;;30.33;30.33;102293.91;5013694;28;20030;-40
2022/07/15 07:00:21;;;;;;;7.90;1.48;;;;;;;28.08;33.12;102299.75;5014663;28;20021;-41
2022/07/15 07:02:47;;;;;;;5.60;1.40;;;;;;;25.12;38.16;102294.56;5014684;28;20433;-39
2022/07/15 07:05:12;;;;;;;7.45;1.58;;;;;;;24.41;40.23;102293.66;5014723;28;20033;-40
2022/07/15 07:07:38;;;;;;;8.38;1.40;;;;;;;23.66;42.34;102300.91;5014065;28;20050;-47
2022/07/15 07:10:03;;;;;;;5.53;1.33;;;;;;;23.14;43.77;102299.19;5014322;28;20469;-42
2022/07/15 07:12:28;;;;;;;7.28;1.60;;;;;;;23.48;43.03;102306.38;5013092;28;20032;-42
2022/07/15 07:14:54;;;;;;;7.07;1.40;;;;;;;23.56;42.62;102306.00;5014120;28;20021;-41
2022/07/15 07:17:19;;;;;;;6.55;1.75;;;;;;;22.95;43.55;102300.38;5014537;28;20034;-40
2022/07/15 07:19:45;;;;;;;9.80;1.30;;;;;;;23.37;43.17;102300.94;5013742;28;20026;-40
2022/07/15 07:22:10;;;;;;;6.22;1.40;;;;;;;23.06;44.09;102296.09;5013191;28;20033;-40
2022/07/15 07:24:35;;;;;;;10.18;1.42;;;;;;;23.57;43.26;102300.50;5013422;28;20537;-39
2022/07/15 07:27:01;;;;;;;6.50;1.50;;;;;;;23.42;43.89;102301.03;5013883;28;20034;-40
2022/07/15 07:29:26;;;;;;;7.47;1.38;;;;;;;23.36;42.92;102304.63;5013333;28;20104;-41
2022/07/15 07:31:51;;;;;;;4.88;1.67;;;;;;;23.74;42.00;102305.84;5013945;28;20068;-41
2022/07/15 07:34:18;;;;;;;7.25;1.45;;;;;;;23.77;41.55;102305.34;5013834;28;20384;-41
2022/07/15 07:36:45;;;;;;;4.80;1.20;;;;;;;23.80;41.50;102302.22;5013826;28;20030;-41
2022/07/15 07:39:10;;;;;;;4.60;1.30;;;;;;;;;;5029034;28;20166;-40
2022/07/15 07:41:36;;;;;;;7.95;1.20;;;;;;;23.87;42.00;102304.72;5013826;28;20100;-41
2022/07/15 07:44:01;;;;;;;6.97;1.20;;;;;;;23.28;42.91;102307.63;5029678;28;20021;-40
2022/07/15 07:46:26;;;;;;;7.45;1.23;;;;;;;23.98;41.44;102308.31;5014074;28;20053;-41
2022/07/15 07:48:51;;;;;;;3.40;0.93;;;;;;;23.00;41.96;102313.66;5013794;28;20485;-39
2022/07/15 07:51:17;;;;;;;4.47;1.20;;;;;;;23.95;40.87;102311.44;5014120;28;20365;-41
2022/07/15 07:53:43;;;;;;;8.30;1.38;;;;;;;23.17;43.77;102305.81;5013712;28;20483;-41
2022/07/15 07:56:08;;;;;;;6.93;1.48;;;;;;;23.64;42.89;102305.63;5013666;28;20388;-42
2022/07/15 07:58:34;;;;;;;5.40;1.20;;;;;;;24.22;42.03;102309.75;5013765;28;20028;-42
2022/07/15 08:00:59;;;;;;;6.38;1.50;;;;;;;24.02;40.87;102306.78;5013825;28;20030;-40
2022/07/15 08:03:25;;;;;;;4.70;1.20;;;;;;;24.08;40.26;102304.00;5012420;28;20030;-39
2022/07/15 08:05:50;;;;;;;6.72;1.30;;;;;;;24.38;38.42;102307.34;5013953;28;20022;-38
2022/07/15 08:08:18;;;;;;;3.70;1.20;;;;;;;24.16;38.86;102300.16;5013530;28;20453;-39
2022/07/15 08:10:48;;;;;;;9.10;1.75;;;;;;;24.08;38.98;102308.47;5031953;28;20057;-41
2022/07/15 08:13:15;;;;;;;10.85;1.60;;;;;;;23.26;41.48;102301.78;5018133;28;20021;-40
2022/07/15 08:15:41;;;;;;;4.13;1.20;;;;;;;22.74;40.77;102299.13;5017756;28;20457;-40
2022/07/15 08:18:06;;;;;;;3.78;0.90;;;;;;;22.27;42.08;102307.84;5017379;28;20021;-38
2022/07/15 08:20:32;;;;;;;6.35;1.38;;;;;;;22.36;42.81;102313.59;5017334;28;20034;-40
2022/07/15 08:22:58;;;;;;;5.22;1.45;;;;;;;22.60;42.20;102305.66;5017889;28;20026;-41
2022/07/15 08:25:32;;;;;;;4.07;0.90;;;;;;;21.84;41.76;102303.63;5017384;28;20488;-38
2022/07/15 08:27:58;;;;;;;2.30;0.30;;;;;;;21.54;40.79;102301.00;5017538;28;20113;-39
2022/07/15 08:30:24;;;;;;;5.63;1.00;;;;;;;21.74;40.93;102298.09;5032550;28;20435;-40
2022/07/15 08:32:50;;;;;;;9.15;1.20;;;;;;;21.53;42.63;102304.69;5017808;28;20116;-40
2022/07/15 08:35:15;;;;;;;4.85;1.20;;;;;;;21.68;42.88;102300.84;5017039;28;20125;-40
2022/07/15 08:37:40;;;;;;;3.17;0.88;;;;;;;22.26;42.29;102310.69;5016975;28;20022;-40
2022/07/15 08:40:09;;;;;;;4.55;1.05;;;;;;;22.23;41.79;102306.69;5017195;28;20022;-40
2022/07/15 08:42:35;;;;;;;5.97;0.90;;;;;;;22.55;40.30;102306.34;5016928;28;20087;-40
2022/07/15 08:45:00;;;;;;;4.70;0.90;;;;;;;22.82;38.37;102303.25;5017179;28;20022;-40
2022/07/15 08:47:26;;;;;;;6.63;1.10;;;;;;;23.35;38.85;102303.00;5017363;28;20030;-40
2022/07/15 08:49:56;;;;;;;7.40;1.33;;;;;;;24.20;37.17;102311.84;5017077;28;20254;-40
2022/07/15 08:52:24;;;;;;;3.55;1.02;;;;;;;24.21;37.15;102296.78;5016779;28;20499;-39
2022/07/15 08:54:50;;;;;;;5.47;0.70;;;;;;;24.44;36.35;102301.91;5017342;28;20445;-40
2022/07/15 08:57:15;;;;;;;4.32;1.00;;;;;;;24.84;36.26;102303.50;5017033;28;20045;-41
2022/07/15 08:59:42;;;;;;;5.22;1.00;;;;;;;25.02;35.23;102298.94;5016672;28;20088;-38
2022/07/15 09:02:10;;;;;;;3.72;0.80;;;;;;;25.60;35.84;102290.28;5016818;28;20033;-40
2022/07/15 09:05:14;;;;;;;5.60;1.17;;;;;;;25.35;35.28;102284.78;5016984;28;20053;-40
2022/07/15 09:08:08;;;;;;;9.50;1.30;;;;;;;25.16;36.63;102294.88;5031348;28;20050;-41
2022/07/15 09:10:55;;;;;;;4.57;0.90;;;;;;;23.96;37.74;102294.56;5031640;28;20096;-42
2022/07/15 09:13:30;;;;;;;7.47;0.90;;;;;;;23.30;39.49;102294.19;5016670;28;20524;-40
2022/07/15 09:16:00;;;;;;;4.07;0.70;;;;;;;23.55;38.28;102296.50;5016271;28;20033;-41
2022/07/15 09:18:29;;;;;;;1.88;0.60;;;;;;;24.53;35.85;102302.28;5016498;28;20032;-40
2022/07/15 09:20:55;;;;;;;4.47;1.15;;;;;;;24.21;36.56;102294.16;5015744;28;20464;-46
2022/07/15 09:23:29;;;;;;;2.00;0.70;;;;;;;25.30;36.62;102287.38;5016411;28;20029;-39
2022/07/15 09:26:14;;;;;;;2.63;0.85;;;;;;;26.55;33.43;102294.94;5016257;28;20018;-39
2022/07/15 09:28:40;;;;;;;4.30;1.10;;;;;;;25.27;34.19;102285.22;5016670;28;20084;-40
2022/07/15 09:33:58;;;;;;;2.83;0.90;;;;;;;25.32;34.83;102277.31;5016351;28;20072;-38
2022/07/15 09:36:26;;;;;;;3.63;0.98;;;;;;;25.48;35.51;102276.41;5016126;28;20061;-41
2022/07/15 09:39:00;;;;;;;3.47;0.90;;;;;;;26.14;34.18;102278.00;5016026;28;20022;-40
2022/07/15 09:41:28;;;;;;;3.05;1.00;;;;;;;25.79;35.28;102269.53;5015951;28;20036;-42
2022/07/15 09:44:01;;;;;;;2.70;0.70;;;;;;;25.16;36.16;102271.88;5016097;28;20018;-40
2022/07/15 09:46:41;;;;;;;4.05;1.27;;;;;;;23.92;38.82;102281.03;5015843;28;20029;-40
2022/07/15 09:49:07;;;;;;;4.50;0.93;;;;;;;24.02;39.96;102275.91;5015908;28;20030;-41
2022/07/15 09:51:43;;;;;;;3.33;0.80;;;;;;;23.79;39.65;102276.84;5015835;28;20114;-41
2022/07/15 09:54:12;;;;;;;6.00;0.85;;;;;;;25.54;37.12;102274.63;5015644;28;20433;-42
2022/07/15 09:56:38;;;;;;;4.80;1.05;;;;;;;26.28;37.25;102273.84;5015616;28;20432;-40
2022/07/15 09:59:03;;;;;;;3.85;1.13;;;;;;;26.23;35.36;102271.97;5015781;28;20025;-42
2022/07/15 10:01:29;;;;;;;3.75;1.13;;;;;;;26.69;34.42;102266.13;5015314;28;20026;-40
2022/07/15 10:03:56;;;;;;;4.50;1.52;;;;;;;25.71;36.54;102274.50;5015447;28;20072;-41
2022/07/15 10:06:26;;;;;;;4.75;0.90;;;;;;;23.93;39.05;102272.06;5015211;28;20034;-39
2022/07/15 10:08:52;;;;;;;7.72;3.50;;;;;;;23.97;39.17;102246.00;5015303;28;20033;-41
2022/07/15 10:11:18;;;;;;;9.27;5.40;;;;;;;24.57;39.45;102258.50;5015322;28;20072;-42
2022/07/15 10:13:49;;;;;;;3.75;0.90;;;;;;;24.20;39.66;102269.59;5015404;28;20030;-40
2022/07/15 10:16:38;;;;;;;5.97;1.00;;;;;;;24.37;38.80;102245.78;5014949;28;20088;-38
2022/07/15 10:19:13;;;;;;;2.55;0.88;;;;;;;24.51;38.73;102262.09;5015049;28;20037;-41
2022/07/15 10:22:19;;;;;;;2.70;0.80;;;;;;;25.19;37.69;102260.78;5015264;28;20465;-42
2022/07/15 10:25:02;;;;;;;3.17;0.90;;;;;;;26.31;34.47;102257.44;5015074;28;20102;-38
2022/07/15 10:27:53;;;;;;;2.33;0.75;;;;;;;26.07;35.52;102255.19;5015213;28;20026;-40
2022/07/15 10:30:21;;;;;;;2.83;0.88;;;;;;;27.09;34.46;102248.72;5015465;28;20050;-41
2022/07/15 10:33:07;;;;;;;3.92;0.70;;;;;;;26.65;33.82;102243.84;5013503;28;20026;-41
2022/07/15 10:35:43;;;;;;;5.03;0.95;;;;;;;25.08;35.88;102251.13;5015060;28;20041;-44
2022/07/15 10:38:24;;;;;;;3.65;0.63;;;;;;;24.21;38.04;102249.25;5014792;28;20037;-41
2022/07/15 10:41:07;;;;;;;3.08;0.75;;;;;;;24.80;38.10;102260.09;5015059;28;20104;-38
2022/07/15 10:43:52;;;;;;;3.35;0.70;;;;;;;25.94;36.30;102247.69;5014876;28;20534;-40
2022/07/15 10:46:17;;;;;;;5.85;0.98;;;;;;;26.99;36.00;102262.78;5014532;28;20369;-40
2022/07/15 10:48:59;;;;;;;4.32;0.80;;;;;;;27.34;33.78;102254.09;5014870;28;20081;-42
2022/07/15 10:51:36;;;;;;;24.00;16.77;;;;;;;27.02;34.11;102241.03;5014935;28;20033;-42
2022/07/15 10:54:10;;;;;;;7.03;2.17;;;;;;;26.65;34.07;102225.28;5014563;28;20430;-41
2022/07/15 10:56:40;;;;;;;4.10;1.10;;;;;;;25.98;35.40;102217.00;5014814;28;20033;-41
2022/07/15 10:59:11;;;;;;;5.63;1.70;;;;;;;26.65;34.81;102220.78;5014473;28;20357;-41
2022/07/15 11:01:42;;;;;;;4.20;1.00;;;;;;;25.47;35.90;102216.59;5014461;28;20025;-42
2022/07/15 11:04:19;;;;;;;2.55;0.60;;;;;;;25.11;36.14;102208.31;5014613;28;20073;-41
2022/07/15 11:07:07;;;;;;;2.63;0.70;;;;;;;24.68;38.04;102215.25;5014529;28;20120;-40
2022/07/15 11:10:06;;;;;;;2.30;0.77;;;;;;;25.11;38.27;102212.81;5014467;28;20096;-41
2022/07/15 11:12:31;;;;;;;3.67;1.10;;;;;;;25.18;36.94;102214.25;5014106;28;20065;-42
2022/07/15 11:15:05;;;;;;;5.00;0.97;;;;;;;25.05;38.60;102219.88;5014372;28;20057;-40
2022/07/15 11:17:33;;;;;;;3.75;0.77;;;;;;;24.89;38.07;102216.31;5014167;28;20408;-40
2022/07/15 11:20:11;;;;;;;4.90;1.00;;;;;;;25.30;36.91;102226.50;5014206;28;20022;-42
2022/07/15 11:22:39;;;;;;;7.05;0.70;;;;;;;24.24;37.56;102228.44;5014603;28;20026;-39
2022/07/15 11:25:05;;;;;;;3.50;0.77;;;;;;;24.27;38.72;102229.78;5014197;28;20062;-41
2022/07/15 11:27:31;;;;;;;1.98;0.60;;;;;;;23.99;39.19;102234.13;5014247;28;20025;-40
2022/07/15 11:30:02;;;;;;;2.45;0.57;;;;;;;23.97;38.73;102230.97;5014175;28;20467;-39
2022/07/15 11:32:32;;;;;;;3.63;0.75;;;;;;;24.12;38.32;102222.47;5014250;28;20025;-39
2022/07/15 11:34:59;;;;;;;2.75;0.88;;;;;;;23.97;38.09;102216.97;5014286;28;20457;-41